createdAt,value
2022-08-25T00:01:59.524Z,16.52
2022-08-25T00:04:29.723Z,16.42
2022-08-25T00:07:02.242Z,16.22
2022-08-25T00:09:32.050Z,16.30
2022-08-25T00:11:59.528Z,16.27
2022-08-25T00:14:36.062Z,16.18
2022-08-25T00:17:06.015Z,16.13
2022-08-25T00:19:36.725Z,16.05
2022-08-25T00:22:04.777Z,16.09
2022-08-25T00:24:31.941Z,16.19
2022-08-25T00:27:01.792Z,16.25
2022-08-25T00:29:30.217Z,16.26
2022-08-25T00:31:58.087Z,16.20
2022-08-25T00:34:35.544Z,16.21
2022-08-25T00:37:07.235Z,16.20
2022-08-25T00:39:34.754Z,16.23
2022-08-25T00:42:03.274Z,16.16
2022-08-25T00:44:31.965Z,16.08
2022-08-25T00:47:01.331Z,16.12
2022-08-25T00:49:44.173Z,16.08
2022-08-25T00:52:17.666Z,16.11
2022-08-25T00:55:08.018Z,16.05
2022-08-25T00:57:51.813Z,15.98
2022-08-25T01:00:23.108Z,15.98
2022-08-25T01:02:50.771Z,15.91
2022-08-25T01:05:19.492Z,16.02
2022-08-25T01:07:46.521Z,15.85
2022-08-25T01:10:14.477Z,15.88
2022-08-25T01:12:41.841Z,15.94
2022-08-25T01:15:13.185Z,15.88
2022-08-25T01:17:53.357Z,15.89
2022-08-25T01:20:29.176Z,15.83
2022-08-25T01:22:57.608Z,15.83
2022-08-25T01:25:46.354Z,15.80
2022-08-25T01:28:13.417Z,15.66
2022-08-25T01:30:41.070Z,15.50
2022-08-25T01:33:11.970Z,15.52
2022-08-25T01:35:40.834Z,15.50
2022-08-25T01:38:08.984Z,15.52
2022-08-25T01:40:38.190Z,15.20
2022-08-25T01:43:27.500Z,15.09
2022-08-25T01:45:54.305Z,14.94
2022-08-25T01:48:21.116Z,15.09
2022-08-25T01:50:47.881Z,15.13
2022-08-25T01:53:27.161Z,15.22
2022-08-25T01:56:01.969Z,15.28
2022-08-25T01:58:36.038Z,15.24
2022-08-25T02:01:08.136Z,15.22
2022-08-25T02:03:42.355Z,15.21
2022-08-25T02:06:17.006Z,15.11
2022-08-25T02:08:44.124Z,15.17
2022-08-25T02:11:14.382Z,15.24
2022-08-25T02:13:42.949Z,15.20
2022-08-25T02:16:20.787Z,15.19
2022-08-25T02:18:48.503Z,15.09
2022-08-25T02:21:15.444Z,15.10
2022-08-25T02:23:43.111Z,15.00
2022-08-25T02:26:10.819Z,14.94
2022-08-25T02:28:37.938Z,14.93
2022-08-25T02:31:06.072Z,14.88
2022-08-25T02:33:32.867Z,14.86
2022-08-25T02:36:01.171Z,14.90
2022-08-25T02:38:30.311Z,14.98
2022-08-25T02:40:59.245Z,14.95
2022-08-25T02:43:27.741Z,14.89
2022-08-25T02:45:56.433Z,14.86
2022-08-25T02:48:23.541Z,14.86
2022-08-25T02:50:52.685Z,14.91
2022-08-25T02:53:22.536Z,14.89
2022-08-25T02:55:49.310Z,14.91
2022-08-25T02:58:16.167Z,14.82
2022-08-25T03:00:43.199Z,14.83
2022-08-25T03:03:10.109Z,14.83
2022-08-25T03:05:36.916Z,14.82
2022-08-25T03:08:06.381Z,14.77
2022-08-25T03:10:33.641Z,14.80
2022-08-25T03:13:00.403Z,14.62
2022-08-25T03:15:27.881Z,14.60
2022-08-25T03:17:59.920Z,14.44
2022-08-25T03:20:28.034Z,14.42
2022-08-25T03:22:54.796Z,14.46
2022-08-25T03:25:40.161Z,14.51
2022-08-25T03:28:08.488Z,14.61
2022-08-25T03:30:35.435Z,14.60
2022-08-25T03:33:02.388Z,14.57
2022-08-25T03:35:29.332Z,14.65
2022-08-25T03:37:59.283Z,14.67
2022-08-25T03:40:27.036Z,14.64
2022-08-25T03:42:56.992Z,14.64
2022-08-25T03:45:25.118Z,14.63
2022-08-25T03:47:54.109Z,14.56
2022-08-25T03:50:22.770Z,14.53
2022-08-25T03:52:55.384Z,14.48
2022-08-25T03:55:25.277Z,14.50
2022-08-25T03:57:54.036Z,14.41
2022-08-25T04:00:23.207Z,14.40
2022-08-25T04:02:50.128Z,14.26
2022-08-25T04:05:17.374Z,14.37
2022-08-25T04:07:44.142Z,14.26
2022-08-25T04:10:12.500Z,14.24
2022-08-25T04:12:39.465Z,14.31
2022-08-25T04:15:08.236Z,14.26
2022-08-25T04:17:39.853Z,14.23
2022-08-25T04:20:09.730Z,14.20
2022-08-25T04:22:38.541Z,14.25
2022-08-25T04:25:07.525Z,14.13
2022-08-25T04:27:36.207Z,14.13
2022-08-25T04:30:03.940Z,14.07
2022-08-25T04:32:31.343Z,14.18
2022-08-25T04:34:58.432Z,14.22
2022-08-25T04:37:25.181Z,14.06
2022-08-25T04:39:52.012Z,14.12
2022-08-25T04:42:18.848Z,13.94
2022-08-25T04:44:45.653Z,13.89
2022-08-25T04:47:12.451Z,13.99
2022-08-25T04:49:39.716Z,14.00
2022-08-25T04:52:13.048Z,13.92
2022-08-25T04:54:41.676Z,13.85
2022-08-25T04:57:08.509Z,13.84
2022-08-25T04:59:35.408Z,13.84
2022-08-25T05:02:03.337Z,13.80
2022-08-25T05:04:32.130Z,13.85
2022-08-25T05:06:59.938Z,13.81
2022-08-25T05:09:28.047Z,13.77
2022-08-25T05:11:55.503Z,13.90
2022-08-25T05:14:26.164Z,13.99
2022-08-25T05:16:54.375Z,13.91
2022-08-25T05:19:21.557Z,14.00
2022-08-25T05:21:48.413Z,14.01
2022-08-25T05:24:15.189Z,13.98
2022-08-25T05:26:43.696Z,13.94
2022-08-25T05:29:11.637Z,14.05
2022-08-25T05:31:42.252Z,14.09
2022-08-25T05:34:10.525Z,14.09
2022-08-25T05:36:38.533Z,14.19
2022-08-25T05:39:05.308Z,14.13
2022-08-25T05:41:33.559Z,14.20
2022-08-25T05:44:00.529Z,14.26
2022-08-25T05:46:27.357Z,14.21
2022-08-25T05:48:59.043Z,14.30
2022-08-25T05:51:27.216Z,14.34
2022-08-25T05:53:54.226Z,14.38
2022-08-25T05:56:21.817Z,14.39
2022-08-25T05:58:50.262Z,14.38
2022-08-25T06:01:45.895Z,14.47
2022-08-25T06:04:15.691Z,14.51
2022-08-25T06:06:42.729Z,14.48
2022-08-25T06:09:10.507Z,14.60
2022-08-25T06:11:40.165Z,14.65
2022-08-25T06:14:09.602Z,14.72
2022-08-25T06:16:38.722Z,14.91
2022-08-25T06:19:07.565Z,14.92
2022-08-25T06:21:34.493Z,15.00
2022-08-25T06:24:01.943Z,15.02
2022-08-25T06:26:28.805Z,15.11
2022-08-25T06:28:55.609Z,15.25
2022-08-25T06:31:23.299Z,15.26
2022-08-25T06:33:50.972Z,15.36
2022-08-25T06:36:19.283Z,15.51
2022-08-25T06:38:47.012Z,15.67
2022-08-25T06:41:14.253Z,15.84
2022-08-25T06:43:47.969Z,15.98
2022-08-25T06:46:21.625Z,16.08
2022-08-25T06:48:49.593Z,16.19
2022-08-25T06:51:19.772Z,16.31
2022-08-25T06:53:49.163Z,16.43
2022-08-25T06:56:19.129Z,16.57
2022-08-25T06:58:46.885Z,16.61
2022-08-25T07:01:26.838Z,16.88
2022-08-25T07:03:59.895Z,17.05
2022-08-25T07:06:31.739Z,17.26
2022-08-25T07:08:59.830Z,17.43
2022-08-25T07:11:26.782Z,17.61
2022-08-25T07:13:54.286Z,17.90
2022-08-25T07:16:21.673Z,18.06
2022-08-25T07:18:49.390Z,18.23
2022-08-25T07:21:17.488Z,18.52
2022-08-25T07:23:46.501Z,18.82
2022-08-25T07:26:39.336Z,18.99
2022-08-25T07:29:32.141Z,19.18
2022-08-25T07:32:01.459Z,19.46
2022-08-25T07:37:47.760Z,19.81
2022-08-25T07:40:21.647Z,20.25
2022-08-25T07:42:50.288Z,20.46
2022-08-25T07:45:20.630Z,20.79
2022-08-25T07:47:48.780Z,21.05
2022-08-25T07:50:18.870Z,21.16
2022-08-25T07:52:52.204Z,21.42
2022-08-25T07:55:24.341Z,21.47
2022-08-25T07:57:55.467Z,21.58
2022-08-25T08:00:24.022Z,21.87
2022-08-25T08:02:51.573Z,22.20
2022-08-25T08:05:18.409Z,22.19
2022-08-25T08:07:45.194Z,22.19
2022-08-25T08:13:02.180Z,22.40
2022-08-25T08:15:29.785Z,22.61
2022-08-25T08:18:00.794Z,22.82
2022-08-25T08:20:28.989Z,22.84
2022-08-25T08:22:56.045Z,22.87
2022-08-25T08:25:27.108Z,23.00
2022-08-25T08:27:56.461Z,22.88
2022-08-25T08:30:26.328Z,23.22
2022-08-25T08:33:11.862Z,23.29
2022-08-25T08:35:42.933Z,23.48
2022-08-25T08:38:17.328Z,23.40
2022-08-25T08:41:33.862Z,23.65
2022-08-25T08:44:37.849Z,23.74
2022-08-25T08:47:25.481Z,23.64
2022-08-25T08:50:13.136Z,23.99
2022-08-25T08:53:07.420Z,23.94
2022-08-25T08:55:41.997Z,24.10
2022-08-25T08:58:26.576Z,24.24
2022-08-25T09:00:58.437Z,24.12
2022-08-25T09:03:42.258Z,23.39
2022-08-25T09:06:18.825Z,23.85
2022-08-25T09:08:46.142Z,23.80
2022-08-25T09:11:23.735Z,23.87
2022-08-25T09:14:30.665Z,24.08
2022-08-25T09:17:17.851Z,24.46
2022-08-25T09:20:18.597Z,24.30
2022-08-25T09:23:01.281Z,24.50
2022-08-25T09:26:22.096Z,24.74
2022-08-25T09:28:55.304Z,24.77
2022-08-25T09:31:29.885Z,25.02
2022-08-25T09:34:00.892Z,25.11
2022-08-25T09:36:28.990Z,24.72
2022-08-25T09:38:55.989Z,24.88
2022-08-25T09:42:00.376Z,24.87
2022-08-25T09:44:41.402Z,24.98
2022-08-25T09:47:24.660Z,25.06
2022-08-25T09:50:00.327Z,24.98
2022-08-25T09:52:37.521Z,25.39
2022-08-25T09:55:15.897Z,25.73
2022-08-25T09:57:57.057Z,25.86
2022-08-25T10:00:33.674Z,25.99
2022-08-25T10:03:22.817Z,26.37
2022-08-25T10:06:14.940Z,26.11
2022-08-25T10:08:44.438Z,26.33
2022-08-25T10:11:34.565Z,26.78
2022-08-25T10:14:16.441Z,26.83
2022-08-25T10:16:47.014Z,27.15
2022-08-25T10:19:26.936Z,26.95
2022-08-25T10:22:13.235Z,26.84
2022-08-25T10:24:44.050Z,27.01
2022-08-25T10:27:41.737Z,26.93
2022-08-25T10:30:57.091Z,27.19
2022-08-25T10:33:47.721Z,26.95
2022-08-25T10:36:22.821Z,27.25
2022-08-25T10:38:57.123Z,27.20
2022-08-25T10:41:58.875Z,27.34
2022-08-25T10:44:55.073Z,27.47
2022-08-25T10:48:15.549Z,27.52
2022-08-25T10:51:25.571Z,27.25
2022-08-25T10:54:17.963Z,27.60
2022-08-25T10:57:00.945Z,27.90
2022-08-25T10:59:50.456Z,28.17
2022-08-25T11:03:20.425Z,28.56
2022-08-25T11:05:59.778Z,28.76
2022-08-25T11:08:39.361Z,28.98
2022-08-25T11:11:21.514Z,28.83
2022-08-25T11:14:09.332Z,28.62
2022-08-25T11:16:48.558Z,28.75
2022-08-25T11:19:38.825Z,28.53
2022-08-25T11:22:24.199Z,27.88
2022-08-25T11:25:20.203Z,28.32
2022-08-25T11:28:12.266Z,28.35
2022-08-25T11:30:40.376Z,28.40
2022-08-25T11:33:12.626Z,28.73
2022-08-25T11:35:44.433Z,29.02
2022-08-25T11:38:26.545Z,29.19
2022-08-25T11:41:30.832Z,29.19
2022-08-25T11:44:33.994Z,29.18
2022-08-25T11:47:00.779Z,28.81
2022-08-25T11:49:58.656Z,28.44
2022-08-25T11:52:34.553Z,28.86
2022-08-25T11:55:15.692Z,29.20
2022-08-25T11:57:45.784Z,29.29
2022-08-25T12:00:42.760Z,29.60
2022-08-25T12:03:34.492Z,29.35
2022-08-25T12:06:33.501Z,28.92
2022-08-25T12:09:00.581Z,28.36
2022-08-25T12:11:39.963Z,29.06
2022-08-25T12:14:28.199Z,29.53
2022-08-25T12:16:55.375Z,29.05
2022-08-25T12:19:38.050Z,29.37
2022-08-25T12:22:04.860Z,29.54
2022-08-25T12:24:47.886Z,29.96
2022-08-25T12:27:44.133Z,30.38
2022-08-25T12:30:41.175Z,30.65
2022-08-25T12:33:44.333Z,31.23
2022-08-25T12:36:27.018Z,31.50
2022-08-25T12:38:54.013Z,31.47
2022-08-25T12:41:31.059Z,31.45
2022-08-25T12:44:49.871Z,31.60
2022-08-25T12:47:34.161Z,31.85
2022-08-25T12:50:47.796Z,31.29
2022-08-25T12:53:36.357Z,31.29
2022-08-25T12:56:10.389Z,31.56
2022-08-25T12:59:06.041Z,31.88
2022-08-25T13:01:56.559Z,32.18
2022-08-25T13:05:23.786Z,32.68
2022-08-25T13:08:15.175Z,32.57
2022-08-25T13:10:57.588Z,32.62
2022-08-25T13:13:56.378Z,32.69
2022-08-25T13:16:30.198Z,32.72
2022-08-25T13:19:01.690Z,32.65
2022-08-25T13:21:41.253Z,32.39
2022-08-25T13:24:26.623Z,32.33
2022-08-25T13:27:02.278Z,32.19
2022-08-25T13:29:40.768Z,32.53
2022-08-25T13:32:14.389Z,32.81
2022-08-25T13:34:43.762Z,33.00
2022-08-25T13:37:31.467Z,32.49
2022-08-25T13:40:17.751Z,32.91
2022-08-25T13:42:58.457Z,32.97
2022-08-25T13:45:30.045Z,33.36
2022-08-25T13:47:58.739Z,33.66
2022-08-25T13:50:31.630Z,33.80
2022-08-25T13:53:11.589Z,34.01
2022-08-25T13:55:54.859Z,34.22
2022-08-25T13:58:39.509Z,34.22
2022-08-25T14:01:47.886Z,34.31
2022-08-25T14:04:25.993Z,34.02
2022-08-25T14:07:26.567Z,34.05
2022-08-25T14:10:30.965Z,34.23
2022-08-25T14:13:16.509Z,33.93
2022-08-25T14:15:46.353Z,33.80
2022-08-25T14:18:31.173Z,34.07
2022-08-25T14:21:11.299Z,34.30
2022-08-25T14:23:39.709Z,34.17
2022-08-25T14:26:06.801Z,34.40
2022-08-25T14:28:34.882Z,34.61
2022-08-25T14:31:08.400Z,34.99
2022-08-25T14:33:50.244Z,35.29
2022-08-25T14:36:18.685Z,34.96
2022-08-25T14:38:47.970Z,34.56
2022-08-25T14:41:23.965Z,34.23
2022-08-25T14:43:50.890Z,34.30
2022-08-25T14:46:27.619Z,34.17
2022-08-25T14:49:00.579Z,34.67
2022-08-25T14:51:31.973Z,35.30
2022-08-25T14:54:03.959Z,35.95
2022-08-25T14:56:32.381Z,36.15
2022-08-25T14:59:00.477Z,35.99
2022-08-25T15:01:30.050Z,36.16
2022-08-25T15:04:11.756Z,36.02
2022-08-25T15:06:39.653Z,35.35
2022-08-25T15:09:16.655Z,34.18
2022-08-25T15:11:50.572Z,33.87
2022-08-25T15:14:29.041Z,34.30
2022-08-25T15:17:02.314Z,35.77
2022-08-25T15:19:29.313Z,36.55
2022-08-25T15:21:58.051Z,36.66
2022-08-25T15:24:27.347Z,36.80
2022-08-25T15:27:05.742Z,33.76
2022-08-25T15:29:37.033Z,33.67
2022-08-25T15:32:07.284Z,33.71
2022-08-25T15:34:35.739Z,34.39
2022-08-25T15:37:13.083Z,34.88
2022-08-25T15:39:42.146Z,33.74
2022-08-25T15:42:15.286Z,32.78
2022-08-25T15:44:53.387Z,32.17
2022-08-25T15:47:21.962Z,31.80
2022-08-25T15:49:48.912Z,31.80
2022-08-25T15:52:16.016Z,31.59
2022-08-25T15:54:42.770Z,30.99
2022-08-25T15:57:18.339Z,30.70
2022-08-25T15:59:51.850Z,30.82
2022-08-25T16:02:20.816Z,30.97
2022-08-25T16:04:48.188Z,30.61
2022-08-25T16:07:14.993Z,30.29
2022-08-25T16:09:42.130Z,30.29
2022-08-25T16:12:11.094Z,30.37
2022-08-25T16:14:40.429Z,30.28
2022-08-25T16:17:07.700Z,30.31
2022-08-25T16:19:38.150Z,29.93
2022-08-25T16:22:08.995Z,29.97
2022-08-25T16:24:45.124Z,29.91
2022-08-25T16:27:13.173Z,29.71
2022-08-25T16:29:43.561Z,29.71
2022-08-25T16:32:13.605Z,29.54
2022-08-25T16:34:41.676Z,29.45
2022-08-25T16:37:09.158Z,29.26
2022-08-25T16:39:37.049Z,29.29
2022-08-25T16:42:09.989Z,29.19
2022-08-25T16:44:39.868Z,28.96
2022-08-25T16:47:08.954Z,28.82
2022-08-25T16:49:36.932Z,28.78
2022-08-25T16:52:24.865Z,28.66
2022-08-25T16:55:15.238Z,28.60
2022-08-25T16:57:54.485Z,28.58
2022-08-25T17:00:28.198Z,28.64
2022-08-25T17:03:01.489Z,28.47
2022-08-25T17:05:29.711Z,28.42
2022-08-25T17:08:18.707Z,28.53
2022-08-25T17:10:46.489Z,28.39
2022-08-25T17:13:14.316Z,28.42
2022-08-25T17:15:48.626Z,28.35
2022-08-25T17:18:19.073Z,28.28
2022-08-25T17:20:48.656Z,28.11
2022-08-25T17:23:18.113Z,28.05
2022-08-25T17:25:50.393Z,28.10
2022-08-25T17:28:17.327Z,28.08
2022-08-25T17:30:45.090Z,28.05
2022-08-25T17:33:14.333Z,27.76
2022-08-25T17:35:44.961Z,27.31
2022-08-25T17:38:13.500Z,27.18
2022-08-25T17:40:40.851Z,27.12
2022-08-25T17:43:09.119Z,27.06
2022-08-25T17:45:37.083Z,26.90
2022-08-25T17:48:07.658Z,26.61
2022-08-25T17:50:36.633Z,26.52
2022-08-25T17:53:03.832Z,26.43
2022-08-25T17:55:31.609Z,26.21
2022-08-25T17:57:59.035Z,26.06
2022-08-25T18:00:25.850Z,25.99
2022-08-25T18:02:53.109Z,25.92
2022-08-25T18:05:20.402Z,25.83
2022-08-25T18:07:47.833Z,25.75
2022-08-25T18:10:16.752Z,25.53
2022-08-25T18:12:43.734Z,25.37
2022-08-25T18:15:14.240Z,25.26
2022-08-25T18:17:42.152Z,25.19
2022-08-25T18:20:15.055Z,25.07
2022-08-25T18:22:44.224Z,25.01
2022-08-25T18:25:14.669Z,24.79
2022-08-25T18:27:41.485Z,24.57
2022-08-25T18:30:10.402Z,24.41
2022-08-25T18:32:37.447Z,24.22
2022-08-25T18:35:05.923Z,24.19
2022-08-25T18:37:51.191Z,24.10
2022-08-25T18:40:24.299Z,24.02
2022-08-25T18:42:56.024Z,23.95
2022-08-25T18:45:26.317Z,23.85
2022-08-25T18:47:56.389Z,23.78
2022-08-25T18:50:25.920Z,23.61
2022-08-25T18:52:53.913Z,23.57
2022-08-25T18:55:22.737Z,23.39
2022-08-25T18:57:50.943Z,23.23
2022-08-25T19:00:23.168Z,23.20
2022-08-25T19:02:53.093Z,23.16
2022-08-25T19:05:35.595Z,23.09
2022-08-25T19:08:06.681Z,22.99
2022-08-25T19:10:36.007Z,22.84
2022-08-25T19:13:08.379Z,22.74
2022-08-25T19:15:37.751Z,22.64
2022-08-25T19:18:09.945Z,22.55
2022-08-25T19:20:37.726Z,22.46
2022-08-25T19:23:04.636Z,22.35
2022-08-25T19:25:41.419Z,22.30
2022-08-25T19:28:12.462Z,22.20
2022-08-25T19:30:50.508Z,21.97
2022-08-25T19:33:31.349Z,21.75
2022-08-25T19:36:08.948Z,21.72
2022-08-25T19:38:37.620Z,21.65
2022-08-25T19:41:14.040Z,21.61
2022-08-25T19:43:50.598Z,21.48
2022-08-25T19:46:23.487Z,21.08
2022-08-25T19:48:50.449Z,21.00
2022-08-25T19:51:19.227Z,20.88
2022-08-25T19:53:54.301Z,20.96
2022-08-25T19:56:22.623Z,20.92
2022-08-25T19:58:49.868Z,20.90
2022-08-25T20:01:18.469Z,20.85
2022-08-25T20:03:45.522Z,20.88
2022-08-25T20:06:16.041Z,20.83
2022-08-25T20:08:43.839Z,20.85
2022-08-25T20:11:10.979Z,20.69
2022-08-25T20:13:37.900Z,20.60
2022-08-25T20:16:05.587Z,20.53
2022-08-25T20:18:32.597Z,20.54
2022-08-25T20:20:59.722Z,20.48
2022-08-25T20:23:44.953Z,20.19
2022-08-25T20:26:11.733Z,20.11
2022-08-25T20:28:42.085Z,20.13
2022-08-25T20:31:09.436Z,20.08
2022-08-25T20:33:36.364Z,19.85
2022-08-25T20:36:04.945Z,19.66
2022-08-25T20:38:32.968Z,19.56
2022-08-25T20:41:01.397Z,19.66
2022-08-25T20:43:30.005Z,19.75
2022-08-25T20:46:01.926Z,19.81
2022-08-25T20:48:29.164Z,19.82
2022-08-25T20:50:57.983Z,19.74
2022-08-25T20:53:25.995Z,19.73
2022-08-25T20:55:52.793Z,19.72
2022-08-25T20:58:20.601Z,19.69
2022-08-25T21:00:47.419Z,19.41
2022-08-25T21:03:14.265Z,19.24
2022-08-25T21:05:43.349Z,19.34
2022-08-25T21:08:10.993Z,19.51
2022-08-25T21:10:38.075Z,19.47
2022-08-25T21:13:06.312Z,19.23
2022-08-25T21:15:33.166Z,19.04
2022-08-25T21:18:00.024Z,19.05
2022-08-25T21:20:27.319Z,19.09
2022-08-25T21:22:54.612Z,19.22
2022-08-25T21:25:22.221Z,19.27
2022-08-25T21:27:49.179Z,19.31
2022-08-25T21:30:16.506Z,18.96
2022-08-25T21:32:52.690Z,18.90
2022-08-25T21:35:20.333Z,18.98
2022-08-25T21:37:53.290Z,18.98
2022-08-25T21:40:22.828Z,18.82
2022-08-25T21:42:50.682Z,18.67
2022-08-25T21:45:21.051Z,18.67
2022-08-25T21:47:48.581Z,18.76
2022-08-25T21:50:15.436Z,18.52
2022-08-25T21:52:42.438Z,18.35
2022-08-25T21:55:15.750Z,18.37
2022-08-25T21:57:43.825Z,18.53
2022-08-25T22:00:13.071Z,18.53
2022-08-25T22:02:39.902Z,18.47
2022-08-25T22:05:11.618Z,18.47
2022-08-25T22:07:43.835Z,18.33
2022-08-25T22:10:16.488Z,18.13
2022-08-25T22:12:45.906Z,18.15
2022-08-25T22:15:15.651Z,18.23
2022-08-25T22:17:43.185Z,18.37
2022-08-25T22:20:11.156Z,18.30
2022-08-25T22:22:38.018Z,18.19
2022-08-25T22:25:05.597Z,18.12
2022-08-25T22:27:35.353Z,18.23
2022-08-25T22:30:02.528Z,18.09
2022-08-25T22:32:30.589Z,17.87
2022-08-25T22:34:57.421Z,17.74
2022-08-25T22:37:24.215Z,17.74
2022-08-25T22:39:51.103Z,17.75
2022-08-25T22:42:19.375Z,17.87
2022-08-25T22:44:53.950Z,17.93
2022-08-25T22:47:21.056Z,17.88
2022-08-25T22:49:48.780Z,17.85
2022-08-25T22:52:15.591Z,17.74
2022-08-25T22:54:42.424Z,17.70
2022-08-25T22:57:11.236Z,17.68
2022-08-25T22:59:39.158Z,17.53
2022-08-25T23:02:06.719Z,17.39
2022-08-25T23:04:33.597Z,17.26
2022-08-25T23:07:00.561Z,17.14
2022-08-25T23:09:27.383Z,17.10
2022-08-25T23:11:54.152Z,17.14
2022-08-25T23:14:21.691Z,17.22
2022-08-25T23:16:50.014Z,17.22
2022-08-25T23:19:18.244Z,17.32
2022-08-25T23:22:17.781Z,17.44
2022-08-25T23:24:48.218Z,17.17
2022-08-25T23:27:21.624Z,17.24
2022-08-25T23:29:50.014Z,17.08
2022-08-25T23:32:18.797Z,17.05
2022-08-25T23:34:47.200Z,16.93
2022-08-25T23:37:15.128Z,16.88
2022-08-25T23:39:45.575Z,16.92
2022-08-25T23:42:12.453Z,16.93
2022-08-25T23:44:39.258Z,16.86
2022-08-25T23:47:07.146Z,16.81
2022-08-25T23:49:34.050Z,16.85
2022-08-25T23:52:01.457Z,16.70
2022-08-25T23:54:31.123Z,16.58
2022-08-25T23:56:59.432Z,16.63
2022-08-25T23:59:26.592Z,16.71
